Time;durP1;ratioP1;P1;durP2;ratioP2;P2;SDS_P1;SDS_P2;PMS_P1;PMS_P2;Temp;Humidity;BMP_temperature;BMP_pressure;BME280_temperature;BME280_humidity;BME280_pressure;Samples;Min_cycle;Max_cycle;Signal;HPM_P1;HPM_P2
2022/11/19 00:01:23;;;;;;;0.50;0.50;;;2.30;1.00;;;;;;4844265;29;20274;-58
2022/11/19 00:03:50;;;;;;;0.43;0.43;;;2.30;1.00;;;;;;4842126;29;20258;-58
2022/11/19 00:06:24;;;;;;;0.40;0.40;;;2.30;1.00;;;;;;4843532;29;20194;-58
2022/11/19 00:08:52;;;;;;;0.40;0.40;;;2.30;1.00;;;;;;4843932;29;20223;-58
2022/11/19 00:14:12;;;;;;;0.43;0.43;;;2.20;1.00;;;;;;4847097;29;20275;-60
2022/11/19 00:16:40;;;;;;;0.50;0.50;;;2.20;1.00;;;;;;4843318;29;20202;-59
2022/11/19 00:19:08;;;;;;;0.70;0.70;;;2.10;1.00;;;;;;4844504;29;20227;-59
2022/11/19 00:21:35;;;;;;;1.70;1.60;;;2.20;1.00;;;;;;4828395;29;21317;-57
2022/11/19 00:24:02;;;;;;;0.50;0.50;;;2.10;1.00;;;;;;4844685;29;20746;-58
2022/11/19 00:26:29;;;;;;;0.50;0.50;;;2.10;1.00;;;;;;4845965;29;20202;-65
2022/11/19 00:28:56;;;;;;;0.50;0.50;;;2.10;1.00;;;;;;4827525;29;20207;-60
2022/11/19 00:31:23;;;;;;;0.40;0.40;;;2.00;1.00;;;;;;4845455;29;20281;-59
2022/11/19 00:33:53;;;;;;;1.13;1.13;;;2.00;1.00;;;;;;4844377;29;20210;-58
2022/11/19 00:36:20;;;;;;;0.40;0.40;;;2.00;1.00;;;;;;4845392;29;20219;-60
2022/11/19 00:38:47;;;;;;;0.50;0.50;;;2.00;1.00;;;;;;4844750;29;20305;-59
2022/11/19 00:41:14;;;;;;;0.50;0.50;;;1.90;1.00;;;;;;4830969;29;20206;-62
2022/11/19 00:43:46;;;;;;;0.50;0.50;;;1.90;1.00;;;;;;4833255;29;20610;-60
2022/11/19 00:46:25;;;;;;;0.47;0.47;;;1.90;1.00;;;;;;4848204;29;20226;-67
2022/11/19 00:48:54;;;;;;;0.50;0.50;;;1.80;1.00;;;;;;4847766;29;20313;-60
2022/11/19 00:51:23;;;;;;;3.37;3.20;;;1.80;1.00;;;;;;4846946;29;20273;-60
2022/11/19 00:53:50;;;;;;;0.40;0.40;;;1.90;1.00;;;;;;4847719;29;20215;-63
2022/11/19 00:56:21;;;;;;;0.40;0.40;;;1.90;1.00;;;;;;4847798;29;20203;-59
2022/11/19 00:58:48;;;;;;;0.50;0.50;;;1.80;1.00;;;;;;4848332;29;20237;-65
2022/11/19 01:01:19;;;;;;;1.93;1.90;;;1.80;1.00;;;;;;4831610;29;20214;-59
2022/11/19 01:03:46;;;;;;;0.40;0.40;;;1.80;1.00;;;;;;4845886;29;20736;-59
2022/11/19 01:06:16;;;;;;;0.50;0.50;;;1.80;1.00;;;;;;4844202;29;20809;-62
2022/11/19 01:08:50;;;;;;;0.40;0.40;;;1.80;1.00;;;;;;4846763;29;20701;-59
2022/11/19 01:11:25;;;;;;;0.50;0.50;;;1.70;1.00;;;;;;4846680;29;20421;-58
2022/11/19 01:13:53;;;;;;;0.40;0.40;;;1.70;1.00;;;;;;4846660;29;20255;-61
2022/11/19 01:16:29;;;;;;;0.40;0.40;;;1.70;1.00;;;;;;4846219;29;20199;-61
2022/11/19 01:18:57;;;;;;;0.40;0.40;;;1.70;2.30;;;;;;4846380;29;20221;-61
2022/11/19 01:21:28;;;;;;;0.40;0.40;;;1.70;1.70;;;;;;4845861;29;20203;-60
2022/11/19 01:23:55;;;;;;;0.43;0.43;;;1.70;2.20;;;;;;4846320;29;20290;-59
2022/11/19 01:26:23;;;;;;;0.40;0.40;;;1.60;5.20;;;;;;4845072;29;20245;-61
2022/11/19 01:28:50;;;;;;;0.50;0.50;;;1.70;6.30;;;;;;4842238;29;20270;-58
2022/11/19 01:31:19;;;;;;;0.40;0.40;;;1.60;6.80;;;;;;4842023;29;20207;-58
2022/11/19 01:33:47;;;;;;;0.40;0.40;;;1.60;2.30;;;;;;4842015;29;20692;-60
2022/11/19 01:36:20;;;;;;;0.50;0.50;;;1.50;4.90;;;;;;4844351;29;20206;-60
2022/11/19 01:38:49;;;;;;;0.47;0.47;;;1.50;24.70;;;;;;4843288;29;20293;-60
2022/11/19 01:41:25;;;;;;;0.50;0.50;;;1.50;6.30;;;;;;4845968;29;20251;-59
2022/11/19 01:43:58;;;;;;;11.47;10.80;;;1.60;8.00;;;;;;4844848;29;20224;-60
2022/11/19 01:46:30;;;;;;;0.50;0.50;;;1.50;1.00;;;;;;4843176;29;20214;-60
2022/11/19 01:49:16;;;;;;;0.40;0.40;;;1.50;3.50;;;;;;4842939;29;20191;-61
2022/11/19 01:52:05;;;;;;;2.00;1.90;;;1.50;2.20;;;;;;4845812;29;20250;-60
2022/11/19 01:54:40;;;;;;;0.40;0.40;;;1.50;1.00;;;;;;4834034;29;20294;-58
2022/11/19 01:57:11;;;;;;;0.47;0.47;;;1.50;1.00;;;;;;4844141;29;20198;-58
2022/11/19 01:59:40;;;;;;;0.50;0.50;;;1.50;1.50;;;;;;4847120;29;20708;-61
2022/11/19 02:02:07;;;;;;;0.50;0.50;;;1.40;1.00;;;;;;4844825;29;20310;-59
2022/11/19 02:04:35;;;;;;;0.50;0.50;;;1.40;1.00;;;;;;4845638;29;20199;-59
2022/11/19 02:07:02;;;;;;;1.10;1.10;;;1.40;1.00;;;;;;4827673;29;20194;-58
2022/11/19 02:09:31;;;;;;;0.50;0.50;;;1.40;2.30;;;;;;4845036;29;20290;-58
2022/11/19 02:12:39;;;;;;;0.40;0.40;;;1.40;6.80;;;;;;4845055;29;20679;-60
2022/11/19 02:15:26;;;;;;;0.60;0.60;;;1.40;10.60;;;;;;4781959;29;20830;-60
2022/11/19 02:18:09;;;;;;;0.40;0.40;;;1.40;15.00;;;;;;4842825;29;20220;-59
2022/11/19 02:20:47;;;;;;;0.40;0.40;;;1.40;15.80;;;;;;4846156;29;20198;-58
2022/11/19 02:23:26;;;;;;;0.40;0.40;;;1.40;14.30;;;;;;4845926;29;20733;-59
2022/11/19 02:26:01;;;;;;;0.40;0.40;;;1.40;26.40;;;;;;4844396;29;20290;-60
2022/11/19 02:28:34;;;;;;;0.50;0.50;;;1.40;33.00;;;;;;4827751;29;20214;-60
2022/11/19 02:31:13;;;;;;;0.50;0.50;;;1.40;34.10;;;;;;4844076;29;20694;-60
2022/11/19 02:33:56;;;;;;;0.50;0.50;;;1.30;29.80;;;;;;4843509;29;20225;-59
2022/11/19 02:36:59;;;;;;;0.50;0.50;;;1.30;35.60;;;;;;4828404;29;20232;-60
2022/11/19 02:39:35;;;;;;;0.50;0.50;;;1.20;28.20;;;;;;4826780;29;20301;-60
2022/11/19 02:42:16;;;;;;;0.50;0.50;;;1.20;38.80;;;;;;4845956;29;20746;-60
2022/11/19 02:44:57;;;;;;;0.50;0.50;;;1.20;27.20;;;;;;4846332;29;20198;-61
2022/11/19 02:47:30;;;;;;;0.50;0.50;;;1.20;25.70;;;;;;4840389;29;20266;-59
2022/11/19 02:50:06;;;;;;;0.40;0.40;;;1.20;14.60;;;;;;4827863;29;20199;-59
2022/11/19 02:52:37;;;;;;;0.70;0.70;;;1.20;22.80;;;;;;4845965;29;20775;-60
2022/11/19 02:55:05;;;;;;;0.50;0.50;;;1.20;17.20;;;;;;4846045;29;20211;-60
2022/11/19 02:57:34;;;;;;;0.50;0.50;;;1.20;13.30;;;;;;4845325;29;20222;-58
2022/11/19 03:05:56;;;;;;;0.50;0.50;;;1.20;6.00;;;;;;4829773;29;20209;-58
2022/11/19 03:08:23;;;;;;;0.40;0.40;;;1.30;6.80;;;;;;4844576;29;20250;-59
2022/11/19 03:11:20;;;;;;;0.40;0.40;;;1.20;6.30;;;;;;4859094;29;20257;-59
2022/11/19 03:16:49;;;;;;;0.50;0.50;;;1.20;5.90;;;;;;4845278;29;20194;-60
2022/11/19 03:19:28;;;;;;;0.50;0.50;;;1.20;10.00;;;;;;4842325;29;20535;-59
2022/11/19 03:22:01;;;;;;;0.40;0.40;;;1.10;7.30;;;;;;4844402;29;20194;-63
2022/11/19 03:24:49;;;;;;;0.40;0.40;;;1.10;16.60;;;;;;4844043;29;20214;-62
2022/11/19 03:27:34;;;;;;;0.50;0.50;;;1.10;15.80;;;;;;4858414;29;20206;-63
2022/11/19 03:30:03;;;;;;;0.40;0.40;;;1.10;11.30;;;;;;4844950;29;20282;-62
2022/11/19 03:32:51;;;;;;;0.40;0.40;;;1.10;5.60;;;;;;4844325;29;20217;-61
2022/11/19 03:35:24;;;;;;;0.40;0.40;;;1.10;1.00;;;;;;4842889;29;20349;-57
2022/11/19 03:37:54;;;;;;;0.40;0.40;;;1.10;1.00;;;;;;4843068;29;20626;-58
2022/11/19 03:40:23;;;;;;;0.40;0.40;;;1.10;1.00;;;;;;4841794;29;20294;-59
2022/11/19 03:42:53;;;;;;;0.40;0.40;;;1.10;1.00;;;;;;4842675;29;20833;-58
2022/11/19 03:45:31;;;;;;;0.50;0.50;;;1.10;1.00;;;;;;4844862;29;20207;-59
2022/11/19 03:48:01;;;;;;;0.50;0.50;;;1.10;1.00;;;;;;4844453;29;20202;-58
2022/11/19 03:50:42;;;;;;;0.40;0.40;;;1.10;1.00;;;;;;4859622;29;20301;-61
2022/11/19 03:53:09;;;;;;;0.40;0.40;;;1.10;1.00;;;;;;4845063;29;20198;-61
2022/11/19 03:55:57;;;;;;;0.40;0.40;;;1.10;1.00;;;;;;4845724;29;20246;-62
2022/11/19 03:58:25;;;;;;;0.40;0.40;;;1.00;1.00;;;;;;4844109;29;20558;-63
2022/11/19 04:00:53;;;;;;;0.50;0.50;;;1.00;1.00;;;;;;4845069;29;20229;-63
2022/11/19 04:03:20;;;;;;;0.50;0.50;;;1.10;1.00;;;;;;4858336;29;20281;-63
2022/11/19 04:05:47;;;;;;;0.50;0.50;;;1.00;1.00;;;;;;4857542;29;20195;-63
2022/11/19 04:08:14;;;;;;;0.50;0.50;;;1.00;1.00;;;;;;4844351;29;20659;-62
2022/11/19 04:10:41;;;;;;;0.50;0.50;;;1.00;1.00;;;;;;4841886;29;20591;-63
2022/11/19 04:13:08;;;;;;;0.50;0.50;;;1.00;1.00;;;;;;4844526;29;20198;-63
2022/11/19 04:15:34;;;;;;;0.70;0.70;;;1.00;1.00;;;;;;4845120;29;20715;-63
2022/11/19 04:18:01;;;;;;;0.40;0.40;;;1.00;1.00;;;;;;4846383;29;20210;-62
2022/11/19 04:20:28;;;;;;;17.93;16.83;;;1.00;1.00;;;;;;4847882;29;20205;-62
2022/11/19 04:22:55;;;;;;;0.40;0.40;;;0.90;1.00;;;;;;4847318;29;20309;-63
2022/11/19 04:25:22;;;;;;;0.50;0.50;;;0.90;1.00;;;;;;4846950;29;20585;-62
2022/11/19 04:27:50;;;;;;;0.50;0.50;;;0.90;1.00;;;;;;4862203;29;20574;-61
2022/11/19 04:30:17;;;;;;;0.50;0.50;;;0.90;1.00;;;;;;4848170;29;20206;-62
2022/11/19 04:32:44;;;;;;;0.50;0.50;;;1.00;1.00;;;;;;4847347;29;20241;-63
2022/11/19 04:35:12;;;;;;;0.40;0.40;;;1.00;1.00;;;;;;4847807;29;20210;-62
2022/11/19 04:37:39;;;;;;;0.47;0.47;;;1.00;1.00;;;;;;4846858;29;20203;-63
2022/11/19 04:40:07;;;;;;;0.40;0.40;;;1.00;1.00;;;;;;4845620;29;20205;-63
2022/11/19 04:42:34;;;;;;;0.43;0.43;;;1.00;1.00;;;;;;4861914;29;20297;-63
2022/11/19 04:45:01;;;;;;;0.40;0.40;;;1.00;1.00;;;;;;4848754;29;20202;-63
2022/11/19 04:47:27;;;;;;;0.40;0.40;;;1.00;1.00;;;;;;4846563;29;20222;-62
2022/11/19 04:49:54;;;;;;;0.40;0.40;;;0.90;1.00;;;;;;4859889;29;20215;-62
2022/11/19 04:52:21;;;;;;;0.50;0.50;;;1.00;1.00;;;;;;4846895;29;20218;-62
2022/11/19 04:54:48;;;;;;;0.50;0.50;;;0.90;1.00;;;;;;4847114;29;20210;-61
2022/11/19 04:57:15;;;;;;;0.50;0.50;;;1.00;1.00;;;;;;4845644;29;20273;-62
2022/11/19 04:59:42;;;;;;;0.40;0.40;;;1.00;1.00;;;;;;4845186;29;20210;-61
2022/11/19 05:02:09;;;;;;;0.50;0.50;;;1.00;1.00;;;;;;4846301;29;20199;-62
2022/11/19 05:04:36;;;;;;;0.50;0.50;;;1.00;1.00;;;;;;4844918;29;20201;-61
2022/11/19 05:07:03;;;;;;;0.50;0.50;;;1.00;1.00;;;;;;4861137;29;20632;-62
2022/11/19 05:09:30;;;;;;;0.40;0.40;;;1.00;1.00;;;;;;4844395;29;20243;-62
2022/11/19 05:11:57;;;;;;;1.37;1.37;;;1.00;1.00;;;;;;4846364;29;20281;-63
2022/11/19 05:14:24;;;;;;;0.40;0.40;;;1.00;1.00;;;;;;4846643;29;20217;-64
2022/11/19 05:16:56;;;;;;;0.50;0.50;;;1.00;1.00;;;;;;4847375;29;20191;-63
2022/11/19 05:19:23;;;;;;;0.60;0.60;;;0.90;1.00;;;;;;4846775;29;20210;-62
2022/11/19 05:21:50;;;;;;;2.40;2.30;;;0.90;1.00;;;;;;4844816;29;20238;-63
2022/11/19 05:24:17;;;;;;;0.50;0.50;;;0.90;1.00;;;;;;4847476;29;20308;-63
2022/11/19 05:26:44;;;;;;;0.50;0.50;;;0.90;1.00;;;;;;4845950;29;20207;-63
2022/11/19 05:29:11;;;;;;;0.50;0.50;;;0.80;1.00;;;;;;4845256;29;20206;-62
2022/11/19 05:31:38;;;;;;;0.70;0.70;;;0.80;1.00;;;;;;4847541;29;20218;-63
2022/11/19 05:34:05;;;;;;;0.47;0.47;;;0.80;1.00;;;;;;4846583;29;21227;-63
2022/11/19 05:36:32;;;;;;;0.50;0.50;;;0.80;1.00;;;;;;4842738;29;20777;-63
2022/11/19 05:38:59;;;;;;;0.50;0.50;;;0.80;1.00;;;;;;4844022;29;20207;-64
2022/11/19 05:41:26;;;;;;;0.50;0.50;;;0.70;1.00;;;;;;4845802;29;20203;-62
2022/11/19 05:43:53;;;;;;;0.40;0.40;;;0.70;1.00;;;;;;4846241;29;20225;-64
2022/11/19 05:46:19;;;;;;;1.33;1.33;;;0.70;1.00;;;;;;4861350;29;20299;-63
2022/11/19 05:48:46;;;;;;;0.50;0.50;;;0.60;1.00;;;;;;4845623;29;20724;-63
2022/11/19 05:51:14;;;;;;;0.40;0.40;;;0.60;1.00;;;;;;4829814;29;20698;-62
2022/11/19 05:53:42;;;;;;;0.40;0.40;;;0.50;1.00;;;;;;4844943;29;20202;-62
2022/11/19 05:56:09;;;;;;;0.50;0.50;;;0.50;1.00;;;;;;4860147;29;20294;-64
2022/11/19 05:58:36;;;;;;;0.50;0.50;;;0.40;1.00;;;;;;4845393;29;20191;-62
2022/11/19 06:01:03;;;;;;;0.53;0.53;;;0.40;1.00;;;;;;4846106;29;20205;-64
2022/11/19 06:03:30;;;;;;;0.50;0.50;;;0.30;1.00;;;;;;4847077;29;20740;-65
2022/11/19 06:05:57;;;;;;;0.50;0.50;;;0.30;1.00;;;;;;4860561;29;20332;-62
2022/11/19 06:08:24;;;;;;;0.50;0.50;;;0.30;1.00;;;;;;4845919;29;20281;-63
2022/11/19 06:10:51;;;;;;;0.40;0.40;;;0.20;1.00;;;;;;4845830;29;20243;-64
2022/11/19 06:13:18;;;;;;;0.50;0.50;;;0.20;1.00;;;;;;4829437;29;20283;-62
2022/11/19 06:15:45;;;;;;;0.50;0.50;;;0.20;1.00;;;;;;4844282;29;20210;-62
2022/11/19 06:18:12;;;;;;;1.03;1.03;;;0.20;1.00;;;;;;4845096;29;20196;-63
2022/11/19 06:20:39;;;;;;;0.43;0.43;;;0.20;1.00;;;;;;4829127;29;20286;-63
2022/11/19 06:23:06;;;;;;;0.50;0.50;;;0.20;1.00;;;;;;4845369;29;20214;-62
2022/11/19 06:25:33;;;;;;;0.40;0.40;;;0.10;1.00;;;;;;4844625;29;20203;-63
2022/11/19 06:28:00;;;;;;;0.50;0.50;;;0.00;1.00;;;;;;4845446;29;20743;-63
2022/11/19 06:30:27;;;;;;;0.50;0.50;;;0.00;1.00;;;;;;4845120;29;20207;-62
2022/11/19 06:32:54;;;;;;;0.50;0.50;;;-0.10;1.00;;;;;;4844783;29;20222;-63
2022/11/19 06:35:21;;;;;;;0.40;0.40;;;-0.10;1.00;;;;;;4845726;29;20210;-63
2022/11/19 06:37:48;;;;;;;0.50;0.50;;;-0.20;1.00;;;;;;4844420;29;20198;-62
2022/11/19 06:40:15;;;;;;;0.50;0.50;;;-0.20;1.00;;;;;;4846412;29;20203;-64
2022/11/19 06:42:42;;;;;;;0.50;0.50;;;-0.30;1.00;;;;;;4845110;29;20201;-62
2022/11/19 06:45:14;;;;;;;0.40;0.40;;;-0.30;1.00;;;;;;4844927;29;20267;-64
2022/11/19 06:47:41;;;;;;;0.40;0.40;;;-0.40;1.00;;;;;;4846333;29;20211;-62
2022/11/19 06:50:09;;;;;;;0.40;0.40;;;-0.40;1.00;;;;;;4842028;29;20893;-63
2022/11/19 06:52:36;;;;;;;0.40;0.40;;;-0.40;1.00;;;;;;4845532;29;20211;-63
2022/11/19 06:55:03;;;;;;;0.50;0.50;;;-0.50;1.00;;;;;;4844164;29;20198;-63
2022/11/19 06:57:31;;;;;;;0.40;0.40;;;-0.50;1.00;;;;;;4844525;29;20192;-63
2022/11/19 06:59:57;;;;;;;0.50;0.50;;;-0.50;1.00;;;;;;4843765;29;21059;-63
2022/11/19 07:02:25;;;;;;;0.43;0.43;;;-0.50;1.00;;;;;;4844621;29;20199;-62
2022/11/19 07:04:51;;;;;;;0.40;0.40;;;-0.50;1.00;;;;;;4844211;29;20582;-63
2022/11/19 07:07:18;;;;;;;0.40;0.40;;;-0.50;1.00;;;;;;4841840;29;20234;-63
2022/11/19 07:09:45;;;;;;;0.50;0.50;;;-0.50;1.00;;;;;;4834520;29;20282;-63
2022/11/19 07:12:12;;;;;;;0.40;0.40;;;-0.50;1.00;;;;;;4844824;29;20230;-65
2022/11/19 07:14:39;;;;;;;0.40;0.40;;;-0.50;1.00;;;;;;4858795;29;20664;-63
2022/11/19 07:17:06;;;;;;;0.43;0.43;;;-0.50;1.00;;;;;;4843548;29;20220;-63
2022/11/19 07:19:33;;;;;;;0.40;0.40;;;-0.50;1.00;;;;;;4849580;29;20281;-62
2022/11/19 07:22:00;;;;;;;0.40;0.40;;;-0.50;1.00;;;;;;4847783;29;20225;-62
2022/11/19 07:24:27;;;;;;;0.40;0.40;;;-0.60;1.00;;;;;;4857305;29;20205;-63
2022/11/19 07:26:55;;;;;;;0.50;0.50;;;-0.50;1.00;;;;;;4846486;29;20284;-64
2022/11/19 07:29:22;;;;;;;0.77;0.77;;;-0.60;1.00;;;;;;4845969;29;20274;-65
2022/11/19 07:31:52;;;;;;;0.43;0.43;;;-0.60;1.00;;;;;;4846367;29;20202;-63
2022/11/19 07:34:19;;;;;;;0.40;0.40;;;-0.50;1.00;;;;;;4845367;29;20211;-62
2022/11/19 07:36:46;;;;;;;0.40;0.40;;;-0.50;1.00;;;;;;4843827;29;20218;-63
2022/11/19 07:39:13;;;;;;;0.40;0.40;;;-0.50;1.00;;;;;;4845725;29;20193;-64
2022/11/19 07:44:26;;;;;;;0.50;0.50;;;-0.50;1.00;;;;;;4847097;29;20286;-63
2022/11/19 07:46:53;;;;;;;2.40;2.30;;;-0.50;1.00;;;;;;4847713;29;20577;-63
2022/11/19 07:49:20;;;;;;;0.40;0.40;;;-0.50;1.00;;;;;;4845806;29;20698;-63
2022/11/19 07:51:47;;;;;;;0.50;0.50;;;-0.50;1.00;;;;;;4849581;29;20224;-63
2022/11/19 07:54:15;;;;;;;0.50;0.50;;;-0.40;1.00;;;;;;4849802;29;20206;-63
2022/11/19 07:56:42;;;;;;;0.50;0.50;;;-0.40;1.00;;;;;;4850119;29;20218;-62
2022/11/19 07:59:09;;;;;;;0.50;0.50;;;-0.40;1.00;;;;;;4851145;29;20199;-63
2022/11/19 08:01:37;;;;;;;0.40;0.40;;;-0.40;1.00;;;;;;4849863;29;20894;-62
2022/11/19 08:04:04;;;;;;;0.50;0.50;;;-0.30;1.00;;;;;;4849497;29;20226;-63
2022/11/19 08:06:33;;;;;;;0.50;0.50;;;-0.30;1.00;;;;;;4849486;29;20285;-71
2022/11/19 08:09:02;;;;;;;0.50;0.50;;;-0.30;1.00;;;;;;4833536;29;20252;-63
2022/11/19 08:11:30;;;;;;;0.50;0.50;;;-0.30;1.00;;;;;;4863791;29;20286;-63
2022/11/19 08:14:00;;;;;;;0.50;0.50;;;-0.40;1.00;;;;;;4863451;29;20210;-63
2022/11/19 08:19:15;;;;;;;0.50;0.50;;;-0.40;1.00;;;;;;4850024;29;20191;-62
2022/11/19 08:21:45;;;;;;;0.50;0.50;;;-0.40;1.00;;;;;;4865130;29;20198;-63
2022/11/19 08:24:14;;;;;;;0.43;0.43;;;-0.40;1.00;;;;;;4864079;29;20194;-64
2022/11/19 08:26:42;;;;;;;0.50;0.50;;;-0.40;1.00;;;;;;4865067;29;20612;-62
2022/11/19 08:29:10;;;;;;;0.50;0.50;;;-0.40;1.00;;;;;;4849825;29;20206;-62
2022/11/19 08:31:44;;;;;;;0.40;0.40;;;-0.40;1.00;;;;;;4848774;29;20194;-63
2022/11/19 08:34:11;;;;;;;0.40;0.40;;;-0.30;1.00;;;;;;4849969;29;20875;-63
2022/11/19 08:36:38;;;;;;;0.50;0.50;;;-0.30;1.00;;;;;;4848127;29;20219;-62
2022/11/19 08:39:05;;;;;;;0.50;0.50;;;-0.20;1.00;;;;;;4851574;29;20211;-63
2022/11/19 08:44:19;;;;;;;0.50;0.50;;;-0.20;1.00;;;;;;4848526;29;20205;-62
2022/11/19 08:46:46;;;;;;;0.50;0.50;;;-0.10;1.00;;;;;;4849089;29;20372;-62
2022/11/19 08:49:13;;;;;;;0.50;0.50;;;-0.10;1.00;;;;;;4863575;29;20227;-63
2022/11/19 08:51:40;;;;;;;0.40;0.40;;;-0.10;1.00;;;;;;4848649;29;20714;-63
2022/11/19 08:54:07;;;;;;;0.50;0.50;;;-0.10;1.00;;;;;;4849048;29;20214;-62
2022/11/19 08:56:34;;;;;;;0.40;0.40;;;0.00;1.00;;;;;;4850194;29;20206;-63
2022/11/19 08:59:02;;;;;;;0.40;0.40;;;0.10;1.00;;;;;;4850334;29;20191;-62
2022/11/19 09:01:29;;;;;;;0.40;0.40;;;0.30;1.00;;;;;;4848777;29;20201;-63
2022/11/19 09:03:57;;;;;;;0.50;0.50;;;3.80;1.00;;;;;;4848376;29;20210;-62
2022/11/19 09:06:24;;;;;;;0.50;0.50;;;6.40;1.00;;;;;;4848228;29;20639;-63
2022/11/19 09:08:51;;;;;;;0.50;0.50;;;7.10;1.00;;;;;;4848759;29;20318;-64
2022/11/19 09:11:19;;;;;;;0.50;0.50;;;7.60;1.00;;;;;;4832890;29;20198;-63
2022/11/19 09:13:46;;;;;;;0.50;0.50;;;8.00;1.00;;;;;;4847726;29;20574;-64
2022/11/19 09:16:13;;;;;;;0.47;0.47;;;8.00;1.00;;;;;;4846154;29;20218;-63
2022/11/19 09:18:41;;;;;;;0.50;0.50;;;8.90;1.00;;;;;;4848791;29;20281;-63
2022/11/19 09:21:10;;;;;;;4.70;4.40;;;9.20;1.00;;;;;;4848779;29;20202;-63
2022/11/19 09:23:37;;;;;;;0.50;0.50;;;8.80;1.00;;;;;;4846098;29;20599;-62
2022/11/19 09:26:07;;;;;;;0.50;0.50;;;9.10;1.00;;;;;;4844143;29;20203;-64
2022/11/19 09:28:34;;;;;;;0.50;0.50;;;8.20;1.00;;;;;;4847655;29;20221;-63
2022/11/19 09:31:03;;;;;;;0.50;0.50;;;9.20;1.00;;;;;;4849429;29;20773;-63
2022/11/19 09:33:32;;;;;;;0.50;0.50;;;9.10;1.00;;;;;;4848373;29;20692;-63
2022/11/19 09:36:00;;;;;;;0.50;0.50;;;8.70;1.00;;;;;;4848201;29;20564;-63
2022/11/19 09:38:27;;;;;;;0.50;0.50;;;7.80;1.00;;;;;;4846752;29;20780;-62
2022/11/19 09:40:56;;;;;;;0.50;0.50;;;8.20;1.00;;;;;;4843791;29;21270;-62
2022/11/19 09:43:34;;;;;;;0.50;0.50;;;9.00;1.00;;;;;;4833597;29;20212;-62
2022/11/19 09:46:27;;;;;;;0.50;0.50;;;9.60;1.00;;;;;;4848088;29;20838;-63
2022/11/19 09:48:58;;;;;;;0.40;0.40;;;9.70;1.00;;;;;;4848880;29;20272;-63
2022/11/19 09:51:29;;;;;;;0.50;0.50;;;9.60;1.00;;;;;;4850716;29;20290;-63
2022/11/19 09:54:06;;;;;;;0.40;0.40;;;12.00;1.00;;;;;;4846400;29;20213;-62
2022/11/19 09:56:40;;;;;;;0.50;0.50;;;11.60;1.00;;;;;;4849064;29;20301;-63
2022/11/19 09:59:18;;;;;;;0.47;0.47;;;11.00;1.00;;;;;;4848254;29;20326;-63
2022/11/19 10:01:45;;;;;;;0.50;0.50;;;11.10;1.00;;;;;;4847381;29;20202;-64
2022/11/19 10:04:12;;;;;;;0.50;0.50;;;10.20;1.00;;;;;;4847400;29;20210;-62
2022/11/19 10:06:59;;;;;;;0.50;0.50;;;10.00;1.00;;;;;;4847733;29;20650;-62
2022/11/19 10:09:43;;;;;;;0.50;0.50;;;8.70;1.00;;;;;;4846116;29;20274;-64
2022/11/19 10:12:37;;;;;;;0.50;0.50;;;8.60;1.00;;;;;;4848279;29;20729;-63
2022/11/19 10:15:13;;;;;;;0.60;0.60;;;8.70;1.00;;;;;;4847948;29;20229;-62
2022/11/19 10:17:46;;;;;;;0.50;0.50;;;9.00;1.00;;;;;;4849065;29;20986;-64
2022/11/19 10:20:48;;;;;;;0.50;0.50;;;10.70;1.00;;;;;;4847346;29;20221;-62
2022/11/19 10:23:22;;;;;;;0.50;0.50;;;11.70;1.00;;;;;;4847002;29;20317;-62
2022/11/19 10:25:57;;;;;;;0.50;0.50;;;9.50;1.00;;;;;;4848661;29;20711;-64
2022/11/19 10:28:29;;;;;;;0.50;0.50;;;8.90;1.00;;;;;;4849123;29;20200;-64
2022/11/19 10:31:36;;;;;;;0.50;0.50;;;9.20;1.00;;;;;;4847466;29;20195;-63
2022/11/19 10:34:25;;;;;;;0.50;0.50;;;10.40;1.00;;;;;;4835570;29;20222;-63
2022/11/19 10:37:00;;;;;;;13.40;10.77;;;9.60;1.00;;;;;;4847341;29;20222;-66
2022/11/19 10:39:40;;;;;;;12.33;10.37;;;10.00;1.00;;;;;;4845201;29;20603;-62
2022/11/19 10:42:37;;;;;;;10.83;9.53;;;9.50;1.00;;;;;;4832236;29;20198;-63
2022/11/19 10:45:26;;;;;;;11.63;9.63;;;10.20;1.00;;;;;;4845797;29;20649;-62
2022/11/19 10:48:23;;;;;;;10.93;9.47;;;10.50;1.00;;;;;;4816364;29;20325;-61
2022/11/19 10:50:51;;;;;;;11.63;9.57;;;9.60;1.00;;;;;;4840566;29;20230;-61
2022/11/19 10:53:27;;;;;;;11.03;8.87;;;9.00;1.00;;;;;;4847512;29;20217;-61
2022/11/19 10:56:04;;;;;;;11.77;9.30;;;8.80;1.00;;;;;;4848273;29;20205;-61
2022/11/19 10:58:43;;;;;;;10.67;8.33;;;8.90;1.00;;;;;;4845782;29;20230;-61
2022/11/19 11:01:37;;;;;;;14.40;9.43;;;9.40;1.00;;;;;;4842231;29;20218;-61
2022/11/19 11:04:13;;;;;;;9.43;8.17;;;10.20;1.00;;;;;;4830038;29;20206;-61
2022/11/19 11:06:52;;;;;;;10.73;8.63;;;9.70;1.00;;;;;;4847352;29;20197;-61
2022/11/19 11:09:42;;;;;;;9.90;8.27;;;10.60;1.00;;;;;;4847103;29;20260;-61
2022/11/19 11:15:21;;;;;;;9.33;7.93;;;9.90;1.00;;;;;;4846499;29;20671;-61
2022/11/19 11:18:09;;;;;;;8.93;7.70;;;9.50;1.00;;;;;;4845732;29;20785;-63
2022/11/19 11:20:38;;;;;;;10.37;8.67;;;8.70;1.00;;;;;;4847542;29;20369;-62
2022/11/19 11:23:27;;;;;;;8.83;7.83;;;8.10;1.00;;;;;;4848953;29;20612;-63
2022/11/19 11:26:08;;;;;;;12.03;9.03;;;7.80;1.00;;;;;;4844773;29;20199;-63
2022/11/19 11:28:35;;;;;;;11.03;8.50;;;7.70;1.00;;;;;;4846605;29;20244;-62
2022/11/19 11:31:05;;;;;;;12.83;9.40;;;7.20;1.00;;;;;;4847232;29;20262;-63
2022/11/19 11:33:54;;;;;;;9.57;8.30;;;7.50;1.00;;;;;;4845247;29;20704;-62
2022/11/19 11:36:25;;;;;;;11.60;9.37;;;8.20;1.00;;;;;;4837443;29;20234;-63
2022/11/19 11:38:54;;;;;;;10.90;9.10;;;7.80;1.00;;;;;;4829975;29;20208;-63
2022/11/19 11:41:32;;;;;;;10.30;8.60;;;7.50;1.00;;;;;;4845569;29;20671;-62
2022/11/19 11:44:22;;;;;;;11.90;9.40;;;7.30;1.00;;;;;;4845330;29;20552;-63
2022/11/19 11:46:50;;;;;;;10.23;8.17;;;6.70;1.00;;;;;;4828699;29;20760;-63
2022/11/19 11:49:25;;;;;;;8.93;8.03;;;6.50;1.00;;;;;;4847107;29;20218;-62
2022/11/19 11:52:27;;;;;;;9.27;8.17;;;6.60;1.00;;;;;;4844892;29;20298;-63
2022/11/19 11:55:22;;;;;;;9.57;8.13;;;6.40;1.00;;;;;;4842747;29;20229;-62
2022/11/19 11:57:55;;;;;;;11.17;9.17;;;6.20;1.00;;;;;;4846216;29;20202;-62
2022/11/19 12:00:42;;;;;;;10.70;8.53;;;7.00;1.00;;;;;;4846434;29;20199;-62
2022/11/19 12:03:15;;;;;;;10.20;8.67;;;6.60;1.00;;;;;;4846078;29;20278;-62
2022/11/19 12:06:15;;;;;;;9.20;7.97;;;6.40;1.00;;;;;;4843799;29;20222;-63
2022/11/19 12:08:58;;;;;;;9.20;7.93;;;6.30;1.00;;;;;;4844410;29;20584;-63
2022/11/19 12:11:53;;;;;;;10.93;8.73;;;6.00;1.00;;;;;;4844486;29;20199;-63
2022/11/19 12:14:41;;;;;;;11.23;8.13;;;6.00;1.00;;;;;;4845549;29;20271;-63
2022/11/19 12:17:33;;;;;;;11.27;8.37;;;5.80;1.00;;;;;;4829449;29;20715;-63
2022/11/19 12:20:38;;;;;;;9.67;8.33;;;6.10;1.00;;;;;;4844637;29;20199;-62
2022/11/19 12:23:20;;;;;;;11.10;8.30;;;6.60;1.00;;;;;;4845403;29;20663;-63
2022/11/19 12:25:46;;;;;;;10.83;8.63;;;6.80;1.00;;;;;;4846453;29;20626;-63
2022/11/19 12:28:35;;;;;;;8.50;7.30;;;7.10;1.00;;;;;;4844099;29;20206;-63
2022/11/19 12:31:19;;;;;;;9.77;8.17;;;6.80;1.00;;;;;;4829299;29;20206;-64
2022/11/19 12:34:06;;;;;;;8.73;7.77;;;5.70;1.00;;;;;;4843505;29;20237;-62
2022/11/19 12:36:55;;;;;;;9.33;7.83;;;5.80;1.00;;;;;;4846004;29;20242;-62
2022/11/19 12:40:07;;;;;;;10.20;8.70;;;5.80;1.00;;;;;;4839367;29;20210;-62
2022/11/19 12:43:14;;;;;;;10.50;8.40;;;5.70;1.00;;;;;;4837411;29;20195;-63
2022/11/19 12:46:04;;;;;;;9.20;7.90;;;5.70;1.00;;;;;;4844698;29;20820;-62
2022/11/19 12:48:38;;;;;;;9.83;7.83;;;5.90;1.00;;;;;;4817482;29;20213;-63
2022/11/19 12:51:38;;;;;;;9.13;8.10;;;5.50;1.00;;;;;;4848476;29;20870;-63
2022/11/19 12:54:23;;;;;;;9.37;6.87;;;5.20;1.00;;;;;;4849034;29;20207;-63
2022/11/19 12:57:25;;;;;;;11.63;7.77;;;4.60;1.00;;;;;;4845521;29;20211;-63
2022/11/19 13:00:13;;;;;;;9.67;7.17;;;4.40;1.00;;;;;;4846843;29;20271;-62
2022/11/19 13:02:49;;;;;;;8.07;7.07;;;4.20;1.00;;;;;;4830910;29;20703;-63
2022/11/19 13:05:20;;;;;;;8.93;6.67;;;4.10;1.00;;;;;;4848800;29;20202;-62
2022/11/19 13:08:00;;;;;;;10.07;7.73;;;3.80;1.00;;;;;;4849430;29;20202;-63
2022/11/19 13:10:43;;;;;;;9.30;7.40;;;3.80;1.00;;;;;;4846506;29;21176;-62
2022/11/19 13:13:16;;;;;;;8.27;6.73;;;4.00;1.00;;;;;;4830546;29;20202;-61
2022/11/19 13:15:52;;;;;;;10.37;8.50;;;3.60;1.00;;;;;;4846449;29;20273;-63
2022/11/19 13:18:20;;;;;;;8.97;7.47;;;3.40;1.00;;;;;;4847466;29;20657;-63
2022/11/19 13:21:04;;;;;;;11.13;8.40;;;3.40;1.00;;;;;;4846596;29;20211;-62
2022/11/19 13:23:43;;;;;;;9.77;7.07;;;3.20;1.00;;;;;;4846729;29;20688;-62
2022/11/19 13:26:28;;;;;;;9.30;7.40;;;3.20;1.00;;;;;;4846618;29;20198;-62
2022/11/19 13:29:03;;;;;;;9.30;7.37;;;3.20;1.00;;;;;;4848362;29;20201;-64
2022/11/19 13:31:41;;;;;;;8.20;6.47;;;2.90;1.00;;;;;;4846260;29;20556;-63
2022/11/19 13:34:23;;;;;;;8.97;6.33;;;2.90;1.00;;;;;;4846974;29;20277;-62
2022/11/19 13:37:33;;;;;;;9.80;7.30;;;2.80;1.00;;;;;;4846725;29;20223;-63
2022/11/19 13:40:24;;;;;;;9.60;6.67;;;2.70;1.00;;;;;;4844469;29;20256;-63
2022/11/19 13:46:22;;;;;;;8.50;5.53;;;2.70;1.00;;;;;;4845574;29;20752;-62
2022/11/19 13:49:01;;;;;;;6.23;5.23;;;2.50;1.00;;;;;;4847470;29;20282;-62
2022/11/19 13:51:33;;;;;;;9.13;6.47;;;2.50;1.00;;;;;;4846614;29;20701;-62
2022/11/19 13:54:02;;;;;;;7.87;6.10;;;2.40;1.00;;;;;;4847220;29;20226;-61
2022/11/19 13:56:45;;;;;;;7.33;6.17;;;2.40;1.00;;;;;;4846353;29;20230;-62
2022/11/19 13:59:30;;;;;;;9.93;6.23;;;2.30;1.00;;;;;;4846407;29;20205;-63
2022/11/19 14:02:35;;;;;;;11.07;6.37;;;2.30;1.00;;;;;;4848214;29;20230;-62